Etusivu
METAR-TAF:

METAR-TAF

Lentoasemat :

Locarno, Sveitsi

Leveyspiiri: 46-09-55N, Pituuspiiri: 8-52-40E, korkeus merenpinnasta: 198 m

Tämänhetkinen sää

Tämä raportti tehtiin 27 minuuttia sitten, kello 18.20 UTC
Tuuli 3 kn koillisesta, vaihdellen pohjoisen/luoteen ja idän/kaakon välillä
Lämpötila 7°C
Kosteus 81%
Ilmanpaine 998 hPa
Näkyvyys 10 km tai enemmän
Muutamia pilviä 21000 ft:n korkeudessa

METAR: LSZL 121820Z AUTO 05003KT 340V120 9999NDV FEW210 07/04 Q0998 RMK

Aika: 19:47 (18:47 UTC)

Sääennuste

Tämä raportti tehtiin 1 tunti ja 22 minuuttia sitten, kello 17.25 UTC
Ennuste voimassa 12. päivästä klo 18 UTC - 13. päivään klo 03 UTC
Tuuli 3 kn eri suunnista
Näkyvyys 10 km tai enemmän
ei pilviä alle 1500 m:ssä eikä cumulonimbus-pilviä
Todennäköisyys 30% :
Ajoittain
12. päivästä klo 18 UTC - 12. päivään klo 21 UTC
Tuuli 12 kn idästä/koillisesta puuskistuen 25 kn:hen

TAF: LSZL 121725Z 1218/1303 VRB03KT CAVOK PROB30 TEMPO 1218/1221 07012G25KT

Säähavainnot ja -ennusteet yli 4000 lentoasemalta (METAR- ja TAF-raportit).

Käytössä olevat sääasemat on merkitty karttaan keltaisilla ja punaisilla pisteillä.

Aseta hiiri pisteen päälle nähdäksesi sääaseman nimen.

Klikkaa sitten nähdäksesi säähavainnot ja -ennusteet.

Kartan vaihtaminen: klikkaa mustalla rastilla varustettuja vihreitä pisteitä, niin voit zoomata sisään; viivalla varustettua vihreää pistettä, niin voit zoomata ulos tai vihreitä nuolia, niin pääset viereisille kartoille.


METAR-TAF: